^^
Datos históricos de la estación: Murcia-Puente Tocinos
Diario Informe para Enero 31, 2019 Unidades:  Ingés    Métrico   Ambas
Diario Semanal Mensual Anual
  Máxima: Mínima: Promedio:
Temperatura: 84.4 °F 75.6 °F 79.2 °F
Punto de rocio: 70 °F 60.3 °F 66.7 °F
Humedad: 81% 46.1% 67%
Velocidad viento: 15.9mph 0mph 7.4mph
Racha viento: 29mph - -
Viento- - Este
Presión: 30 in 29.8 in -
Precipitación: 0 in    
 
 
Tabla de datos para Enero 31, 2019
Hora Temperatura Punto de rocio Presión Viento Velocidad viento Racha viento Humedad Intensidad lluvia(por hora) Nubes
00:04 77.5 °F 69.4 °F 29.9 in NE 4.3 mph 7.6 mph 76% 0 in
00:09 77.5 °F 69.4 °F 29.9 in NE 4.3 mph 8.1 mph 76% 0 in
00:14 77.5 °F 69.6 °F 29.9 in NE 4.3 mph 8.1 mph 76.3% 0 in
00:19 77.4 °F 69.6 °F 29.9 in NE 4.6 mph 8.1 mph 77% 0 in
00:24 77.4 °F 69.6 °F 29.9 in NE 5.2 mph 8 mph 77% 0 in
00:29 77.4 °F 69.6 °F 29.9 in NE 4.9 mph 7 mph 77% 0 in
00:34 77.2 °F 69.4 °F 29.9 in NNE 4.3 mph 7 mph 77% 0 in
00:39 77.2 °F 69.6 °F 29.9 in NE 4 mph 7.4 mph 77.6% 0 in
00:44 77 °F 69.6 °F 29.9 in NE 3.6 mph 7 mph 78% 0 in
00:49 76.8 °F 69.4 °F 29.9 in NE 3.7 mph 6 mph 78.1% 0 in
00:54 76.8 °F 69.8 °F 29.9 in NE 4 mph 6 mph 79% 0 in
00:59 76.6 °F 69.6 °F 29.9 in NE 3.7 mph 5.8 mph 79% 0 in
01:04 76.6 °F 69.6 °F 29.9 in NE 3.1 mph 6 mph 79% 0 in
01:09 76.6 °F 69.6 °F 29.9 in NNE 3.1 mph 5.8 mph 79% 0 in
01:14 76.6 °F 69.6 °F 29.9 in NE 3.1 mph 6 mph 79% 0 in
01:19 76.6 °F 69.6 °F 29.9 in NNE 2.9 mph 5 mph 79% 0 in
01:24 76.5 °F 69.8 °F 29.9 in NNE 2.4 mph 5.2 mph 79.8% 0 in
01:29 76.5 °F 69.8 °F 29.9 in NNE 2.5 mph 5.8 mph 80% 0 in
01:34 76.5 °F 69.8 °F 29.9 in North 2.9 mph 6 mph 80% 0 in
01:39 76.5 °F 69.8 °F 29.9 in NNO 2.6 mph 5 mph 80% 0 in
01:44 76.5 °F 69.8 °F 29.9 in NNO 2 mph 4 mph 80% 0 in
01:49 76.5 °F 69.8 °F 29.9 in NNO 1.9 mph 4.3 mph 80% 0 in
01:54 76.5 °F 69.8 °F 29.9 in North 1.8 mph 5 mph 80% 0 in
01:59 76.5 °F 69.8 °F 29.9 in NNO 1.8 mph 5 mph 79.9% 0 in
02:04 76.5 °F 69.4 °F 29.9 in NNO 1.8 mph 2 mph 79% 0 in
02:09 76.5 °F 69.4 °F 29.9 in NNO 1.2 mph   79% 0 in
02:14 76.5 °F 69.4 °F 29.9 in Calm     79% 0 in
02:19 76.5 °F 69.4 °F 29.9 in Calm     79% 0 in
02:24 76.5 °F 69.4 °F 29.9 in Calm     79% 0 in
02:29 76.5 °F 69.4 °F 29.9 in Calm     79% 0 in
02:34 76.5 °F 69.4 °F 29.9 in Calm   2.4 mph 79% 0 in
02:39 76.5 °F 69.4 °F 29.9 in Calm   2.4 mph 79% 0 in
02:44 76.5 °F 69.4 °F 29.9 in Calm   3.1 mph 79% 0 in
02:49 76.5 °F 69.4 °F 29.9 in ENE 0.6 mph 3.6 mph 79% 0 in
02:54 76.5 °F 69.4 °F 29.9 in ENE 1.8 mph 4 mph 79% 0 in
02:59 76.5 °F 69.4 °F 29.9 in ENE 1.2 mph 2.9 mph 79% 0 in
03:04 76.3 °F 69.3 °F 29.9 in Calm   4.6 mph 79% 0 in
03:09 76.3 °F 69.3 °F 29.9 in NNO 0.7 mph 5 mph 79% 0 in
03:14 76.1 °F 69.1 °F 29.9 in NNO 2 mph 5 mph 79% 0 in
03:19 75.9 °F 68.9 °F 29.9 in NNE 2 mph 5 mph 79% 0 in
03:24 75.9 °F 68.9 °F 29.9 in NNO 2 mph 5 mph 79% 0 in
03:29 75.9 °F 68.9 °F 29.9 in NO 1.9 mph 4.6 mph 79.1% 0 in
03:34 75.9 °F 69.3 °F 29.9 in NO 1.8 mph 5.2 mph 80% 0 in
03:39 75.9 °F 69.3 °F 29.9 in NO 2 mph 5 mph 80% 0 in
03:44 75.9 °F 69.3 °F 29.9 in NO 2.4 mph 5.2 mph 80% 0 in
03:49 75.7 °F 69.3 °F 29.9 in NNO 2.5 mph 5 mph 80% 0 in
03:54 75.7 °F 69.1 °F 29.9 in NO 2.9 mph 5 mph 80% 0 in
03:59 75.7 °F 69.1 °F 29.9 in ONO 2.5 mph 5.2 mph 80% 0 in
04:04 75.7 °F 69.1 °F 29.9 in ONO 1.8 mph 5.2 mph 80% 0 in
04:09 75.6 °F 69.1 °F 29.9 in ONO 2.2 mph 5 mph 80% 0 in
04:14 75.6 °F 69.1 °F 29.9 in NO 2.9 mph 5.2 mph 80% 0 in
04:19 75.6 °F 69.1 °F 29.9 in NO 3 mph 5.8 mph 80% 0 in
04:24 75.6 °F 69.1 °F 29.9 in ONO 3.1 mph 6 mph 80.6% 0 in
04:29 75.6 °F 69.3 °F 29.9 in ONO 3 mph 6 mph 81% 0 in
04:34 75.6 °F 69.3 °F 29.9 in OSO 2.9 mph 5 mph 81% 0 in
04:39 75.7 °F 69.4 °F 29.9 in ONO 2.9 mph 6.9 mph 81% 0 in
04:44 75.7 °F 69.4 °F 29.9 in ONO 2.9 mph 7 mph 81% 0 in
04:49 75.7 °F 69.4 °F 29.9 in Oeste 3.2 mph 6 mph 81% 0 in
04:54 75.9 °F 69.6 °F 29.9 in Oeste 4 mph 5 mph 81% 0 in
04:59 75.9 °F 69.4 °F 29.9 in ONO 3.3 mph 5 mph 80.3% 0 in
05:04 76.1 °F 69.4 °F 29.9 in ONO 2 mph 5.9 mph 80% 0 in
05:09 76.3 °F 69.6 °F 29.9 in ONO 2.3 mph 6.9 mph 80% 0 in
05:14 76.3 °F 69.6 °F 29.9 in NO 2.9 mph 7 mph 80% 0 in
05:19 76.3 °F 69.4 °F 29.9 in North 3.1 mph 7 mph 79.2% 0 in
05:24 76.3 °F 69.3 °F 29.9 in North 3.6 mph 6.2 mph 79% 0 in
05:29 76.3 °F 69.3 °F 29.9 in NNE 3.6 mph 6.9 mph 79% 0 in
05:34 76.3 °F 69.3 °F 29.9 in NNE 3.6 mph 8.1 mph 79% 0 in
05:39 76.1 °F 69.3 °F 29.9 in NE 4.3 mph 11.8 mph 79% 0 in
05:44 75.9 °F 68.9 °F 29.9 in NE 5.9 mph 12 mph 79.1% 0 in
05:49 75.7 °F 69.1 °F 29.9 in ENE 5.9 mph 10 mph 80% 0 in
05:54 75.7 °F 69.1 °F 29.9 in ENE 5.9 mph 9 mph 80% 0 in
05:59 75.7 °F 69.1 °F 29.9 in NNE 4.8 mph 6 mph 80% 0 in
06:04 75.6 °F 69.1 °F 29.9 in NO 2.9 mph 5.9 mph 80% 0 in
06:09 75.6 °F 69.1 °F 29.9 in ONO 3 mph 6.9 mph 80% 0 in
06:14 75.6 °F 69.1 °F 29.9 in NNO 3.1 mph 7 mph 80% 0 in
06:19 75.6 °F 68.7 °F 29.9 in North 3 mph 5.9 mph 79.5% 0 in
06:24 75.6 °F 68.5 °F 29.9 in North 2.9 mph 6.9 mph 79% 0 in
06:29 75.6 °F 68.4 °F 29.9 in North 3.1 mph 7.6 mph 78.5% 0 in
06:34 75.6 °F 68.2 °F 29.9 in North 3.6 mph 11.8 mph 78% 0 in
06:39 75.6 °F 68.2 °F 29.9 in NNE 4.3 mph 12 mph 78% 0 in
06:44 75.6 °F 68.2 °F 29.9 in North 5.9 mph 10 mph 78% 0 in
06:49 75.6 °F 67.8 °F 29.9 in NO 5.5 mph 9.2 mph 77% 0 in
06:54 75.6 °F 67.8 °F 29.9 in SO 4.7 mph 9 mph 76.9% 0 in
06:59 75.7 °F 67.6 °F 29.9 in SO 3.9 mph 5.2 mph 76% 0 in
07:04 75.9 °F 67.8 °F 29.9 in SSO 2.4 mph 7.4 mph 76% 0 in
07:09 76.3 °F 67.8 °F 29.9 in SSE 3.2 mph 9.2 mph 75.5% 0 in
07:14 76.3 °F 68.2 °F 29.9 in SSE 4.7 mph 12.7 mph 75.7% 0 in
07:19 76.3 °F 68.5 °F 29.9 in SSE 5.8 mph 13 mph 77.2% 0 in
07:24 75.9 °F 68.5 °F 29.9 in SE 8.1 mph 13 mph 78% 0 in
07:29 75.9 °F 68.5 °F 29.9 in SSE 7.5 mph 12 mph 78% 0 in
07:34 75.9 °F 68.5 °F 29.9 in SE 6.2 mph 8.5 mph 78% 0 in
07:39 75.9 °F 68.5 °F 29.9 in ESE 5.8 mph 9 mph 78% 0 in
07:44 75.9 °F 68.5 °F 29.9 in ESE 5.2 mph 6 mph 77.6% 0 in
07:49 76.1 °F 68.2 °F 29.9 in Sur 4.7 mph 6.9 mph 76.5% 0 in
07:54 76.3 °F 68 °F 29.9 in SE 3.6 mph 7 mph 75.3% 0 in
07:59 76.5 °F 67.5 °F 29.9 in NE 3.6 mph 6.9 mph 74.1% 0 in
08:04 76.5 °F 67.5 °F 29.9 in North 3.6 mph 7 mph 73.9% 0 in
08:09 76.5 °F 67.6 °F 29.9 in NO 3.7 mph 8.5 mph 74% 0 in
08:14 76.3 °F 67.5 °F 29.9 in NO 4 mph 9.2 mph 74% 0 in
08:19 76.3 °F 67.6 °F 29.9 in NO 4.5 mph 10.4 mph 74.8% 0 in
08:24 75.9 °F 67.8 °F 29.9 in ONO 5.4 mph 10 mph 76% 0 in
08:29 75.9 °F 67.8 °F 29.9 in NE 5 mph 9 mph 76% 0 in
08:34 76.1 °F 67.8 °F 29.9 in SE 4.3 mph 5 mph 75.2% 0 in
08:39 76.3 °F 67.5 °F 29.9 in SSE 3.5 mph 5 mph 74.3% 0 in
08:44 76.5 °F 67.6 °F 29.9 in ESE 1.8 mph 5 mph 74% 0 in
08:49 76.6 °F 66.9 °F 29.9 in NE 2.2 mph 10 mph 72.2% 0 in
08:54 76.8 °F 67.3 °F 29.9 in NNE 3.1 mph 10.4 mph 72.4% 0 in
08:59 76.6 °F 67.5 °F 29.9 in NNO 3.9 mph 10 mph 73% 0 in
09:04 76.6 °F 67.3 °F 29.9 in North 5.4 mph 8.5 mph 73% 0 in
09:09 76.8 °F 67.1 °F 29.9 in NO 4.8 mph 9 mph 72% 0 in
09:14 77 °F 67.1 °F 29.9 in ONO 3.6 mph 7 mph 71.9% 0 in
09:19 77.2 °F 67.1 °F 29.9 in NO 3.4 mph 6 mph 71.2% 0 in
09:24 77.4 °F 66.7 °F 29.9 in SO 3.1 mph 5 mph 70.1% 0 in
09:29 77.4 °F 66.6 °F 29.9 in NNO 2.9 mph 7.4 mph 69.2% 0 in
09:34 77.5 °F 66.6 °F 29.9 in North 2.4 mph 9.7 mph 68.7% 0 in
09:39 78.1 °F 66.7 °F 29.9 in NNE 3 mph 10 mph 68.3% 0 in
09:44 78.3 °F 66.7 °F 29.9 in NE 4.3 mph 14 mph 67.6% 0 in
09:49 78.3 °F 66.9 °F 29.9 in NNE 5.4 mph 14 mph 68.3% 0 in
09:54 78.1 °F 67.5 °F 29.9 in NE 7.6 mph 14 mph 69.7% 0 in
09:59 78.1 °F 67.6 °F 29.9 in NNE 8 mph 14 mph 70.3% 0 in
10:04 78.3 °F 68 °F 30 in NE 8.5 mph 16.8 mph 71% 0 in
10:09 78.4 °F 68.2 °F 30 in NE 8.2 mph 17.3 mph 71% 0 in
10:14 78.8 °F 68.5 °F 30 in NNE 7.6 mph 13 mph 70.5% 0 in
10:19 79.2 °F 68.5 °F 30 in NNE 7.5 mph 13 mph 70.2% 0 in
10:24 79.3 °F 69.1 °F 29.9 in NNE 7.4 mph 13 mph 70.9% 0 in
10:29 79.3 °F 68.9 °F 29.9 in NE 7.1 mph 13.8 mph 70.4% 0 in
10:34 79.3 °F 69.1 °F 30 in NE 6.4 mph 14 mph 71% 0 in
10:39 79.2 °F 68.9 °F 30 in NNE 6.8 mph 13 mph 71% 0 in
10:44 79.3 °F 69.1 °F 30 in NNE 7.4 mph 13.5 mph 71% 0 in
10:49 79.2 °F 68.9 °F 30 in NNE 7.5 mph 14 mph 71.1% 0 in
10:54 79.7 °F 69.4 °F 30 in NE 7.6 mph 18.4 mph 71% 0 in
10:59 80.6 °F 69.8 °F 30 in NE 7.8 mph 18 mph 69.9% 0 in
11:04 81.3 °F 70 °F 30 in NE 8.1 mph 17 mph 68.4% 0 in
11:09 81.7 °F 70 °F 30 in NE 8.9 mph 20.1 mph 67.8% 0 in
11:14 81.5 °F 69.8 °F 30 in NE 10.7 mph 23.7 mph 67.6% 0 in
11:19 81 °F 69.8 °F 30 in NE 11.3 mph 24 mph 68.8% 0 in
11:24 80.8 °F 69.8 °F 30 in NE 12.5 mph 22 mph 69.3% 0 in
11:29 80.8 °F 69.4 °F 30 in ENE 11.9 mph 21 mph 68.4% 0 in
11:34 81 °F 69.1 °F 30 in NE 10.7 mph 20 mph 67.1% 0 in
11:39 81 °F 69.1 °F 30 in ENE 10.7 mph 20.7 mph 67.6% 0 in
11:44 80.6 °F 69.3 °F 30 in NE 10.7 mph 21 mph 68.7% 0 in
11:49 80.4 °F 69.3 °F 30 in NE 11.1 mph 20.7 mph 69% 0 in
11:54 80.4 °F 69.3 °F 30 in NE 11.8 mph 21 mph 69.1% 0 in
11:59 80.6 °F 69.1 °F 30 in NE 11.8 mph 20.7 mph 68.2% 0 in
12:04 80.8 °F 68.7 °F 30 in NE 11.8 mph 23 mph 66.7% 0 in
12:09 81 °F 68.2 °F 29.9 in NE 11.8 mph 23 mph 65.5% 0 in
12:14 81 °F 67.6 °F 29.9 in NE 11.8 mph 25.6 mph 64% 0 in
12:19 81 °F 67.3 °F 29.9 in NE 12.2 mph 26 mph 63.1% 0 in
12:24 81 °F 67.5 °F 29.9 in NE 13 mph 26.5 mph 63.6% 0 in
12:29 80.8 °F 67.6 °F 29.9 in NE 13.7 mph 26.5 mph 64.4% 0 in
12:34 80.8 °F 68 °F 29.9 in NE 15.2 mph 22 mph 65% 0 in
12:39 80.6 °F 67.6 °F 29.9 in NE 14.2 mph 28.4 mph 65% 0 in
12:44 80.4 °F 67.5 °F 29.9 in NE 12.5 mph 29 mph 65% 0 in
12:49 80.4 °F 67.1 °F 29.9 in NNE 13.7 mph 29 mph 64% 0 in
12:54 80.2 °F 66.9 °F 29.9 in NE 15.9 mph 24.2 mph 63.7% 0 in
12:59 80.2 °F 66.9 °F 29.9 in NE 15.5 mph 27.6 mph 64% 0 in
13:04 80.1 °F 66.9 °F 29.9 in NE 14.7 mph 28 mph 64% 0 in
13:09 80.2 °F 66.9 °F 29.9 in NE 14.1 mph 24.2 mph 64% 0 in
13:14 80.2 °F 66.9 °F 29.9 in ENE 13 mph 24 mph 64% 0 in
13:19 80.4 °F 67.1 °F 30 in ENE 12.2 mph 21.3 mph 64% 0 in
13:24 80.6 °F 67.3 °F 30 in NE 10.7 mph 21 mph 64% 0 in
13:29 80.8 °F 66.9 °F 30 in NE 10.7 mph 19.2 mph 63% 0 in
13:34 80.8 °F 66.6 °F 30 in NE 10.7 mph 20 mph 62.2% 0 in
13:39 81 °F 66.4 °F 30 in NE 10.9 mph 20.4 mph 61.5% 0 in
13:44 81 °F 66.9 °F 30 in NE 11.2 mph 21.9 mph 62.4% 0 in
13:49 81.1 °F 67.8 °F 30 in NE 11.2 mph 22 mph 63.9% 0 in
13:54 81.3 °F 68 °F 30 in NE 11.2 mph 16 mph 64% 0 in
13:59 81.3 °F 67.5 °F 30 in NE 10.6 mph 18.5 mph 63.1% 0 in
14:04 81.1 °F 67.8 °F 30 in NE 9.7 mph 20.7 mph 63.9% 0 in
14:09 81.1 °F 67.5 °F 29.9 in NE 10.6 mph 21 mph 63% 0 in
14:14 81.5 °F 67.8 °F 29.9 in NE 12.5 mph 23 mph 63.3% 0 in
14:19 81.7 °F 68 °F 29.9 in NE 12.9 mph 23 mph 63.2% 0 in
14:24 81.9 °F 67.6 °F 29.9 in NE 13.7 mph 23 mph 62.1% 0 in
14:29 82 °F 67.3 °F 29.9 in NE 13.6 mph 23 mph 61% 0 in
14:34 82.4 °F 67.5 °F 29.9 in NNE 13.5 mph 21.3 mph 60.5% 0 in
14:39 82.9 °F 67.1 °F 29.9 in NNE 13.2 mph 21 mph 59% 0 in
14:44 82.9 °F 66.7 °F 29.9 in NE 12.5 mph 24.2 mph 58.2% 0 in
14:49 82.9 °F 65.8 °F 29.9 in NE 13 mph 25.3 mph 56.3% 0 in
14:54 82.9 °F 65.5 °F 29.9 in NE 14 mph 25 mph 55.9% 0 in
14:59 82.8 °F 65.7 °F 29.9 in NE 13.9 mph 25.3 mph 56.7% 0 in
15:04 82.8 °F 64.6 °F 29.9 in ENE 13.7 mph 23 mph 54.4% 0 in
15:09 82.9 °F 64.4 °F 29.9 in NE 12.9 mph 26.5 mph 53.7% 0 in
15:14 83.1 °F 64.2 °F 29.9 in NE 11.4 mph 26 mph 53% 0 in
15:19 83.7 °F 63.3 °F 29.9 in NE 11.2 mph 21.3 mph 50.4% 0 in
15:24 83.5 °F 63.1 °F 29.9 in NE 10.7 mph 22.3 mph 50.5% 0 in
15:29 83.1 °F 63.1 °F 29.9 in NE 11.8 mph 22 mph 51% 0 in
15:34 82.9 °F 63.9 °F 29.9 in NE 14 mph 20 mph 52.4% 0 in
15:39 82.9 °F 63 °F 29.9 in NE 12.9 mph 25.6 mph 50.9% 0 in
15:44 82.8 °F 63.3 °F 29.9 in NE 10.7 mph 26.5 mph 52% 0 in
15:49 83.1 °F 63.7 °F 29.9 in NE 11.1 mph 26 mph 52% 0 in
15:54 83.8 °F 63.5 °F 29.9 in NE 11.8 mph 21.9 mph 50.7% 0 in
15:59 84.4 °F 63.1 °F 29.9 in NE 12 mph 22 mph 49.2% 0 in
16:04 84 °F 63.9 °F 29.9 in NE 12.3 mph 20 mph 50.8% 0 in
16:09 83.8 °F 64.4 °F 29.9 in NE 12.4 mph 20 mph 52% 0 in
16:14 83.7 °F 64.2 °F 29.9 in NE 12.5 mph 25.3 mph 52% 0 in
16:19 82.9 °F 63.1 °F 29.9 in NE 13 mph 25.3 mph 51.5% 0 in
16:24 82.6 °F 62.8 °F 29.9 in NE 14 mph 25 mph 51.3% 0 in
16:29 82.2 °F 63.1 °F 29.9 in NE 13.9 mph 25 mph 52.4% 0 in
16:34 82.2 °F 63.7 °F 29.9 in NE 13.7 mph 23 mph 53.7% 0 in
16:39 82.6 °F 64 °F 29.9 in NE 13.3 mph 24.2 mph 53.6% 0 in
16:44 82.6 °F 64 °F 29.9 in NE 12.5 mph 24 mph 53.5% 0 in
16:49 82.2 °F 64.2 °F 29.9 in NNE 13 mph 22.3 mph 54.4% 0 in
16:54 82.4 °F 64.6 °F 29.9 in NE 14 mph 22 mph 54.8% 0 in
16:59 82.6 °F 64.4 °F 29.9 in NE 13 mph 19 mph 54.2% 0 in
17:04 82.8 °F 64.4 °F 29.9 in NE 11.2 mph 19 mph 54.2% 0 in
17:09 82.8 °F 63.1 °F 29.9 in NE 11.7 mph 26.5 mph 51.7% 0 in
17:14 82.8 °F 62.6 °F 29.9 in NE 12.5 mph 26 mph 50.7% 0 in
17:19 82.8 °F 63.1 °F 29.9 in NE 12.9 mph 22.3 mph 51.6% 0 in
17:24 82.9 °F 62.8 °F 29.9 in NE 13.7 mph 22.3 mph 50.4% 0 in
17:29 83.1 °F 63.5 °F 29.9 in NE 13.2 mph 22 mph 51.4% 0 in
17:34 83.3 °F 63.7 °F 29.9 in NE 12.3 mph 21 mph 51.5% 0 in
17:39 83.3 °F 63.3 °F 29.9 in NE 11.6 mph 19 mph 51.2% 0 in
17:44 83.1 °F 63 °F 29.9 in NE 10.2 mph 23 mph 50.9% 0 in
17:49 82.9 °F 62.1 °F 29.9 in NE 10.6 mph 23 mph 49.3% 0 in
17:54 83.1 °F 61.9 °F 29.9 in NE 11.4 mph 19 mph 48.7% 0 in
17:59 83.5 °F 62.4 °F 29.9 in NE 11.1 mph 19 mph 49.3% 0 in
18:04 83.8 °F 62.6 °F 29.9 in NE 10.7 mph 25.3 mph 49.1% 0 in
18:09 83.8 °F 61.9 °F 29.9 in NE 11.2 mph 25 mph 47.6% 0 in
18:14 83.7 °F 61.7 °F 29.9 in NE 12.3 mph 23 mph 47.8% 0 in
18:19 83.7 °F 61.3 °F 29.9 in NE 13 mph 24.2 mph 47.1% 0 in
18:24 83.7 °F 62.2 °F 29.8 in NE 14.5 mph 24 mph 48.4% 0 in
18:29 83.7 °F 62.1 °F 29.8 in NNE 14.5 mph 26.5 mph 48.2% 0 in
18:34 83.1 °F 61.7 °F 29.8 in NE 14.5 mph 26 mph 48.5% 0 in
18:39 83.3 °F 61.7 °F 29.8 in NE 14.7 mph 24 mph 48.2% 0 in
18:44 83.7 °F 62.1 °F 29.8 in NE 15.2 mph 23 mph 48.4% 0 in
18:49 83.7 °F 61.9 °F 29.9 in NE 13.5 mph 19.6 mph 48.1% 0 in
18:54 83.7 °F 61.2 °F 29.9 in NE 10.2 mph 21.9 mph 47% 0 in
18:59 83.7 °F 61 °F 29.9 in NE 10.6 mph 22 mph 46.6% 0 in
19:04 83.7 °F 62.4 °F 29.9 in NE 11.2 mph 17.5 mph 49% 0 in
19:09 83.5 °F 62.6 °F 29.9 in ENE 10.7 mph 19 mph 49.8% 0 in
19:14 83.3 °F 61 °F 29.9 in NE 9.7 mph 20.8 mph 47.2% 0 in
19:19 83.1 °F 60.6 °F 29.9 in NE 10 mph 21 mph 46.8% 0 in
19:24 83.1 °F 60.3 °F 29.9 in NE 10.7 mph 20 mph 46.1% 0 in
19:29 83.1 °F 60.8 °F 29.9 in NE 10.5 mph 18.5 mph 46.9% 0 in
19:34 82.9 °F 61 °F 29.9 in NE 10.2 mph 19 mph 47.6% 0 in
19:39 82.8 °F 61.3 °F 29.8 in NE 10.7 mph 20.7 mph 48.3% 0 in
19:44 82.6 °F 61.9 °F 29.8 in NE 11.8 mph 21 mph 49.7% 0 in
19:49 82.4 °F 62.2 °F 29.9 in NE 11.2 mph 18 mph 50.4% 0 in
19:54 82.4 °F 62.6 °F 29.9 in NE 10.2 mph 16 mph 51.2% 0 in
19:59 82.2 °F 62.8 °F 29.9 in NE 9.8 mph 15.9 mph 52% 0 in
20:04 82 °F 63 °F 29.9 in NE 9.2 mph 17.3 mph 52.5% 0 in
20:09 81.9 °F 63 °F 29.9 in NE 9.7 mph 18.4 mph 53% 0 in
20:14 81.7 °F 62.2 °F 29.9 in NE 10.7 mph 18.4 mph 52% 0 in
20:19 81.7 °F 62.2 °F 29.9 in NE 10.7 mph 18 mph 52% 0 in
20:24 81.7 °F 62.2 °F 29.9 in NE 10.7 mph 17 mph 52% 0 in
20:29 81.9 °F 62.4 °F 29.9 in NE 9.1 mph 13 mph 52% 0 in
20:34 81.9 °F 62.4 °F 29.9 in ENE 6.2 mph 14.7 mph 52% 0 in
20:39 81.7 °F 62.2 °F 29.9 in NE 6.2 mph 15 mph 52% 0 in
20:44 81.5 °F 62.6 °F 29.9 in NE 6.2 mph 15.2 mph 52.6% 0 in
20:49 81.3 °F 62.8 °F 29.9 in NE 7 mph 15 mph 53.5% 0 in
20:54 81.1 °F 63.1 °F 29.9 in NE 8.7 mph 15 mph 54.5% 0 in
20:59 81 °F 63.3 °F 29.9 in NE 8.4 mph 14 mph 55.1% 0 in
21:04 81 °F 63.7 °F 29.9 in NE 8.1 mph 16.1 mph 56% 0 in
21:09 80.8 °F 64.2 °F 29.9 in NE 7.8 mph 16 mph 57.2% 0 in
21:14 80.4 °F 64.8 °F 29.9 in NE 7.4 mph 15 mph 58.7% 0 in
21:19 80.2 °F 65.3 °F 29.9 in NE 7.2 mph 13.8 mph 60.4% 0 in
21:24 80.1 °F 65.8 °F 29.9 in NE 6.9 mph 15 mph 61.9% 0 in
21:29 79.9 °F 66 °F 29.9 in NE 7.8 mph 15 mph 62.9% 0 in
21:34 79.5 °F 65.8 °F 29.9 in NE 9.7 mph 15 mph 63% 0 in
21:39 79.5 °F 65.8 °F 29.9 in NE 8.9 mph 16.1 mph 63% 0 in
21:44 79.5 °F 65.8 °F 29.9 in NE 7.6 mph 16.3 mph 63% 0 in
21:49 79.5 °F 65.8 °F 29.9 in NE 8 mph 16 mph 63% 0 in
21:54 79.3 °F 65.5 °F 29.9 in NE 8.7 mph 13 mph 62.6% 0 in
21:59 79.3 °F 65.1 °F 29.9 in NE 7.8 mph 12.3 mph 62% 0 in
22:04 79.3 °F 65.1 °F 29.9 in NE 6.2 mph 18.5 mph 62% 0 in
22:09 79.3 °F 65.1 °F 29.9 in NE 7.1 mph 19 mph 62% 0 in
22:14 79.3 °F 65.1 °F 29.9 in NE 9.2 mph 21.3 mph 62% 0 in
22:19 79.3 °F 65.1 °F 29.9 in NE 9 mph 21 mph 61.7% 0 in
22:24 79.3 °F 65.1 °F 29.9 in ENE 8.7 mph 16 mph 62% 0 in
22:29 79.2 °F 64.9 °F 29.9 in NE 8 mph 13 mph 62% 0 in
22:34 79.2 °F 64.9 °F 29.9 in NE 6.4 mph 10 mph 62% 0 in
22:39 79 °F 64.8 °F 29.9 in NE 6.1 mph 9 mph 62% 0 in
22:44 79 °F 64.8 °F 29.9 in NE 5.4 mph 8 mph 62% 0 in
22:49 78.8 °F 64.8 °F 29.9 in NNE 5.2 mph 7.4 mph 62.2% 0 in
22:54 78.6 °F 64.9 °F 29.9 in NE 4.7 mph 7 mph 63% 0 in
22:59 78.4 °F 64.9 °F 29.9 in NNE 4.1 mph 5.2 mph 63% 0 in
23:04 78.4 °F 64.8 °F 29.9 in NNE 3.1 mph 6.2 mph 63% 0 in
23:09 78.3 °F 64.8 °F 29.9 in NNE 3.4 mph 8.5 mph 63.3% 0 in
23:14 78.3 °F 64.9 °F 29.9 in NE 4 mph 9 mph 64% 0 in
23:19 78.1 °F 64.9 °F 29.9 in North 4.1 mph 7 mph 64% 0 in
23:24 78.1 °F 65.3 °F 29.9 in North 4.3 mph 7 mph 64.7% 0 in
23:29 78.1 °F 65.5 °F 29.9 in NNO 4 mph 6 mph 65.4% 0 in
23:34 77.7 °F 65.5 °F 29.9 in NNO 3.6 mph 6.9 mph 66% 0 in
23:39 77.5 °F 65.8 °F 29.9 in NNO 4 mph 9.7 mph 67.3% 0 in
23:44 77.4 °F 66.2 °F 29.9 in NNO 4.7 mph 10 mph 68.5% 0 in
23:49 77.4 °F 66.6 °F 29.9 in NNE 4.6 mph 8.5 mph 69.6% 0 in
23:54 77.4 °F 67.1 °F 29.9 in NNE 4.3 mph 9 mph 70.9% 0 in
23:59 77.4 °F 67.5 °F 29.9 in North 4.5 mph 9.2 mph 71.4% 0 in
Murcia-Puente Tocinos, España
Compliments of Weather Underground - 3 mb

La estación de MeteoMurcia.com, publica sus datos en los siguientes proyectos:

Weather Underground PWS IMURCIAP2 Meteoclimatic www.awekas.at

W3Counter
Web Analytics